sensor_id;sensor_type;location;lat;lon;timestamp;P1;durP1;ratioP1;P2;durP2;ratioP2
18280;SDS011;9266;51.132;17.062;2023-02-28T00:00:36;44.80;;;26.63;;
18280;SDS011;9266;51.132;17.062;2023-02-28T00:03:04;47.53;;;26.90;;
18280;SDS011;9266;51.132;17.062;2023-02-28T00:05:31;40.07;;;25.80;;
18280;SDS011;9266;51.132;17.062;2023-02-28T00:07:58;41.63;;;24.97;;
18280;SDS011;9266;51.132;17.062;2023-02-28T00:10:26;46.00;;;25.33;;
18280;SDS011;9266;51.132;17.062;2023-02-28T00:12:55;40.73;;;25.30;;
18280;SDS011;9266;51.132;17.062;2023-02-28T00:15:26;42.17;;;24.47;;
18280;SDS011;9266;51.132;17.062;2023-02-28T00:17:54;43.07;;;24.50;;
18280;SDS011;9266;51.132;17.062;2023-02-28T00:20:21;41.20;;;23.77;;
18280;SDS011;9266;51.132;17.062;2023-02-28T00:22:49;39.90;;;23.23;;
18280;SDS011;9266;51.132;17.062;2023-02-28T00:25:18;40.63;;;25.53;;
18280;SDS011;9266;51.132;17.062;2023-02-28T00:27:46;43.70;;;25.10;;
18280;SDS011;9266;51.132;17.062;2023-02-28T00:30:15;39.57;;;23.73;;
18280;SDS011;9266;51.132;17.062;2023-02-28T00:32:44;39.67;;;23.87;;
18280;SDS011;9266;51.132;17.062;2023-02-28T00:35:12;36.23;;;22.90;;
18280;SDS011;9266;51.132;17.062;2023-02-28T00:37:39;38.77;;;23.03;;
18280;SDS011;9266;51.132;17.062;2023-02-28T00:40:07;38.37;;;22.37;;
18280;SDS011;9266;51.132;17.062;2023-02-28T00:42:36;32.73;;;19.87;;
18280;SDS011;9266;51.132;17.062;2023-02-28T00:45:04;36.83;;;21.53;;
18280;SDS011;9266;51.132;17.062;2023-02-28T00:47:33;39.10;;;23.47;;
18280;SDS011;9266;51.132;17.062;2023-02-28T00:50:01;34.50;;;21.50;;
18280;SDS011;9266;51.132;17.062;2023-02-28T00:52:29;45.53;;;24.73;;
18280;SDS011;9266;51.132;17.062;2023-02-28T00:54:57;38.30;;;22.37;;
18280;SDS011;9266;51.132;17.062;2023-02-28T00:57:24;40.30;;;23.63;;
18280;SDS011;9266;51.132;17.062;2023-02-28T00:59:51;42.07;;;22.30;;
18280;SDS011;9266;51.132;17.062;2023-02-28T01:02:19;37.47;;;22.43;;
18280;SDS011;9266;51.132;17.062;2023-02-28T01:04:46;37.20;;;22.40;;
18280;SDS011;9266;51.132;17.062;2023-02-28T01:07:15;33.80;;;21.50;;
18280;SDS011;9266;51.132;17.062;2023-02-28T01:09:42;34.57;;;21.77;;
18280;SDS011;9266;51.132;17.062;2023-02-28T01:12:09;34.03;;;19.37;;
18280;SDS011;9266;51.132;17.062;2023-02-28T01:14:37;38.00;;;21.87;;
18280;SDS011;9266;51.132;17.062;2023-02-28T01:17:04;35.13;;;21.30;;
18280;SDS011;9266;51.132;17.062;2023-02-28T01:19:31;36.67;;;21.97;;
18280;SDS011;9266;51.132;17.062;2023-02-28T01:22:00;36.13;;;21.27;;
18280;SDS011;9266;51.132;17.062;2023-02-28T01:24:29;38.17;;;21.17;;
18280;SDS011;9266;51.132;17.062;2023-02-28T01:26:56;33.60;;;21.23;;
18280;SDS011;9266;51.132;17.062;2023-02-28T01:29:23;40.17;;;22.33;;
18280;SDS011;9266;51.132;17.062;2023-02-28T01:31:51;36.67;;;21.03;;
18280;SDS011;9266;51.132;17.062;2023-02-28T01:34:18;30.13;;;20.43;;
18280;SDS011;9266;51.132;17.062;2023-02-28T01:36:45;18.13;;;12.80;;
18280;SDS011;9266;51.132;17.062;2023-02-28T01:39:12;34.87;;;21.17;;
18280;SDS011;9266;51.132;17.062;2023-02-28T01:41:41;38.20;;;21.77;;
18280;SDS011;9266;51.132;17.062;2023-02-28T01:47:08;32.63;;;20.53;;
18280;SDS011;9266;51.132;17.062;2023-02-28T01:49:35;36.33;;;22.40;;
18280;SDS011;9266;51.132;17.062;2023-02-28T01:52:03;34.37;;;21.27;;
18280;SDS011;9266;51.132;17.062;2023-02-28T01:54:30;32.30;;;19.80;;
18280;SDS011;9266;51.132;17.062;2023-02-28T01:57:01;33.87;;;20.07;;
18280;SDS011;9266;51.132;17.062;2023-02-28T01:59:33;32.83;;;20.03;;
18280;SDS011;9266;51.132;17.062;2023-02-28T02:02:05;36.57;;;20.23;;
18280;SDS011;9266;51.132;17.062;2023-02-28T02:04:34;32.47;;;19.50;;
18280;SDS011;9266;51.132;17.062;2023-02-28T02:07:06;31.30;;;19.63;;
18280;SDS011;9266;51.132;17.062;2023-02-28T02:09:34;36.57;;;20.67;;
18280;SDS011;9266;51.132;17.062;2023-02-28T02:12:03;32.33;;;20.43;;
18280;SDS011;9266;51.132;17.062;2023-02-28T02:14:43;34.37;;;21.10;;
18280;SDS011;9266;51.132;17.062;2023-02-28T02:17:25;23.27;;;15.80;;
18280;SDS011;9266;51.132;17.062;2023-02-28T02:20:03;42.40;;;23.53;;
18280;SDS011;9266;51.132;17.062;2023-02-28T02:25:36;33.20;;;21.47;;
18280;SDS011;9266;51.132;17.062;2023-02-28T02:28:22;38.40;;;23.43;;
18280;SDS011;9266;51.132;17.062;2023-02-28T02:31:20;36.40;;;21.03;;
18280;SDS011;9266;51.132;17.062;2023-02-28T02:34:19;37.33;;;22.07;;
18280;SDS011;9266;51.132;17.062;2023-02-28T02:37:08;35.23;;;22.43;;
18280;SDS011;9266;51.132;17.062;2023-02-28T02:39:45;30.37;;;21.23;;
18280;SDS011;9266;51.132;17.062;2023-02-28T02:42:18;32.07;;;19.83;;
18280;SDS011;9266;51.132;17.062;2023-02-28T02:44:52;33.83;;;20.20;;
18280;SDS011;9266;51.132;17.062;2023-02-28T02:47:26;35.23;;;19.23;;
18280;SDS011;9266;51.132;17.062;2023-02-28T02:49:59;31.20;;;20.03;;
18280;SDS011;9266;51.132;17.062;2023-02-28T02:52:32;35.83;;;21.10;;
18280;SDS011;9266;51.132;17.062;2023-02-28T02:55:03;31.63;;;19.80;;
18280;SDS011;9266;51.132;17.062;2023-02-28T02:57:32;30.97;;;20.90;;
18280;SDS011;9266;51.132;17.062;2023-02-28T03:00:02;31.93;;;21.37;;
18280;SDS011;9266;51.132;17.062;2023-02-28T03:02:33;36.07;;;21.10;;
18280;SDS011;9266;51.132;17.062;2023-02-28T03:05:04;32.70;;;20.17;;
18280;SDS011;9266;51.132;17.062;2023-02-28T03:07:35;35.10;;;19.80;;
18280;SDS011;9266;51.132;17.062;2023-02-28T03:10:02;34.10;;;21.67;;
18280;SDS011;9266;51.132;17.062;2023-02-28T03:12:47;32.47;;;19.97;;
18280;SDS011;9266;51.132;17.062;2023-02-28T03:15:19;33.57;;;20.93;;
18280;SDS011;9266;51.132;17.062;2023-02-28T03:17:56;30.50;;;20.93;;
18280;SDS011;9266;51.132;17.062;2023-02-28T03:20:35;39.60;;;21.87;;
18280;SDS011;9266;51.132;17.062;2023-02-28T03:23:12;31.97;;;20.10;;
18280;SDS011;9266;51.132;17.062;2023-02-28T03:25:46;33.77;;;20.23;;
18280;SDS011;9266;51.132;17.062;2023-02-28T03:28:25;34.13;;;20.47;;
18280;SDS011;9266;51.132;17.062;2023-02-28T03:30:59;29.87;;;19.93;;
18280;SDS011;9266;51.132;17.062;2023-02-28T03:33:30;35.87;;;21.47;;
18280;SDS011;9266;51.132;17.062;2023-02-28T03:36:04;30.03;;;19.70;;
18280;SDS011;9266;51.132;17.062;2023-02-28T03:38:35;39.70;;;21.30;;
18280;SDS011;9266;51.132;17.062;2023-02-28T03:41:10;39.60;;;22.80;;
18280;SDS011;9266;51.132;17.062;2023-02-28T03:43:40;37.27;;;21.20;;
18280;SDS011;9266;51.132;17.062;2023-02-28T03:46:12;31.73;;;20.87;;
18280;SDS011;9266;51.132;17.062;2023-02-28T03:48:42;35.80;;;20.97;;
18280;SDS011;9266;51.132;17.062;2023-02-28T03:51:14;36.13;;;20.90;;
18280;SDS011;9266;51.132;17.062;2023-02-28T03:53:44;29.53;;;20.57;;
18280;SDS011;9266;51.132;17.062;2023-02-28T03:56:17;33.27;;;21.00;;
18280;SDS011;9266;51.132;17.062;2023-02-28T03:58:49;32.37;;;19.90;;
18280;SDS011;9266;51.132;17.062;2023-02-28T04:01:23;30.03;;;19.70;;
18280;SDS011;9266;51.132;17.062;2023-02-28T04:03:54;31.47;;;21.13;;
18280;SDS011;9266;51.132;17.062;2023-02-28T04:06:22;31.07;;;20.13;;
18280;SDS011;9266;51.132;17.062;2023-02-28T04:08:50;31.20;;;20.00;;
18280;SDS011;9266;51.132;17.062;2023-02-28T04:11:22;28.40;;;19.83;;
18280;SDS011;9266;51.132;17.062;2023-02-28T04:13:54;40.97;;;21.63;;
18280;SDS011;9266;51.132;17.062;2023-02-28T04:16:21;31.20;;;19.83;;
18280;SDS011;9266;51.132;17.062;2023-02-28T04:18:48;31.43;;;19.10;;
18280;SDS011;9266;51.132;17.062;2023-02-28T04:21:15;32.50;;;19.33;;
18280;SDS011;9266;51.132;17.062;2023-02-28T04:23:47;31.63;;;19.93;;
18280;SDS011;9266;51.132;17.062;2023-02-28T04:26:14;36.97;;;21.43;;
18280;SDS011;9266;51.132;17.062;2023-02-28T04:28:41;33.70;;;20.77;;
18280;SDS011;9266;51.132;17.062;2023-02-28T04:31:08;34.53;;;20.33;;
18280;SDS011;9266;51.132;17.062;2023-02-28T04:33:35;31.07;;;19.27;;
18280;SDS011;9266;51.132;17.062;2023-02-28T04:36:03;33.77;;;20.63;;
18280;SDS011;9266;51.132;17.062;2023-02-28T04:38:33;41.37;;;21.23;;
18280;SDS011;9266;51.132;17.062;2023-02-28T04:41:03;35.43;;;21.63;;
18280;SDS011;9266;51.132;17.062;2023-02-28T04:43:31;39.07;;;19.83;;
18280;SDS011;9266;51.132;17.062;2023-02-28T04:46:00;31.63;;;20.07;;
18280;SDS011;9266;51.132;17.062;2023-02-28T04:48:29;31.97;;;21.17;;
18280;SDS011;9266;51.132;17.062;2023-02-28T04:50:59;30.07;;;18.53;;
18280;SDS011;9266;51.132;17.062;2023-02-28T04:53:27;30.80;;;20.07;;
18280;SDS011;9266;51.132;17.062;2023-02-28T04:55:54;33.53;;;19.97;;
18280;SDS011;9266;51.132;17.062;2023-02-28T04:58:23;31.73;;;19.33;;
18280;SDS011;9266;51.132;17.062;2023-02-28T05:00:50;38.33;;;20.50;;
18280;SDS011;9266;51.132;17.062;2023-02-28T05:03:18;31.13;;;20.40;;
18280;SDS011;9266;51.132;17.062;2023-02-28T05:05:47;31.30;;;18.43;;
18280;SDS011;9266;51.132;17.062;2023-02-28T05:08:14;30.03;;;20.03;;
18280;SDS011;9266;51.132;17.062;2023-02-28T05:10:41;32.10;;;18.67;;
18280;SDS011;9266;51.132;17.062;2023-02-28T05:13:09;27.93;;;18.43;;
18280;SDS011;9266;51.132;17.062;2023-02-28T05:15:39;33.30;;;20.53;;
18280;SDS011;9266;51.132;17.062;2023-02-28T05:18:07;34.97;;;20.67;;
18280;SDS011;9266;51.132;17.062;2023-02-28T05:20:35;25.90;;;17.40;;
18280;SDS011;9266;51.132;17.062;2023-02-28T05:23:02;35.77;;;20.27;;
18280;SDS011;9266;51.132;17.062;2023-02-28T05:25:30;37.30;;;20.67;;
18280;SDS011;9266;51.132;17.062;2023-02-28T05:27:57;36.10;;;19.93;;
18280;SDS011;9266;51.132;17.062;2023-02-28T05:30:24;34.43;;;20.20;;
18280;SDS011;9266;51.132;17.062;2023-02-28T05:32:52;35.40;;;21.57;;
18280;SDS011;9266;51.132;17.062;2023-02-28T05:35:20;32.20;;;21.20;;
18280;SDS011;9266;51.132;17.062;2023-02-28T05:37:47;39.77;;;22.97;;
18280;SDS011;9266;51.132;17.062;2023-02-28T05:40:14;35.13;;;23.57;;
18280;SDS011;9266;51.132;17.062;2023-02-28T05:42:41;30.27;;;19.83;;
18280;SDS011;9266;51.132;17.062;2023-02-28T05:45:09;34.63;;;21.13;;
18280;SDS011;9266;51.132;17.062;2023-02-28T05:47:37;32.80;;;21.23;;
18280;SDS011;9266;51.132;17.062;2023-02-28T05:50:06;39.17;;;22.07;;
18280;SDS011;9266;51.132;17.062;2023-02-28T05:52:35;37.73;;;21.40;;
18280;SDS011;9266;51.132;17.062;2023-02-28T05:55:02;35.43;;;20.70;;
18280;SDS011;9266;51.132;17.062;2023-02-28T05:57:30;31.47;;;19.70;;
18280;SDS011;9266;51.132;17.062;2023-02-28T05:59:59;25.43;;;16.23;;
18280;SDS011;9266;51.132;17.062;2023-02-28T06:02:26;26.87;;;16.90;;
18280;SDS011;9266;51.132;17.062;2023-02-28T06:04:53;26.30;;;17.23;;
18280;SDS011;9266;51.132;17.062;2023-02-28T06:07:21;26.23;;;17.17;;
18280;SDS011;9266;51.132;17.062;2023-02-28T06:09:48;28.30;;;19.10;;
18280;SDS011;9266;51.132;17.062;2023-02-28T06:12:15;28.73;;;19.70;;
18280;SDS011;9266;51.132;17.062;2023-02-28T06:14:42;30.83;;;19.97;;
18280;SDS011;9266;51.132;17.062;2023-02-28T06:17:09;33.90;;;19.13;;
18280;SDS011;9266;51.132;17.062;2023-02-28T06:19:37;32.90;;;20.60;;
18280;SDS011;9266;51.132;17.062;2023-02-28T06:22:06;30.87;;;19.90;;
18280;SDS011;9266;51.132;17.062;2023-02-28T06:24:35;31.47;;;20.67;;
18280;SDS011;9266;51.132;17.062;2023-02-28T06:27:02;29.33;;;18.60;;
18280;SDS011;9266;51.132;17.062;2023-02-28T06:29:30;30.20;;;20.37;;
18280;SDS011;9266;51.132;17.062;2023-02-28T06:31:58;28.60;;;18.57;;
18280;SDS011;9266;51.132;17.062;2023-02-28T06:34:25;30.27;;;19.60;;
18280;SDS011;9266;51.132;17.062;2023-02-28T06:36:52;32.73;;;18.57;;
18280;SDS011;9266;51.132;17.062;2023-02-28T06:39:19;26.77;;;16.73;;
18280;SDS011;9266;51.132;17.062;2023-02-28T06:41:48;24.13;;;15.37;;
18280;SDS011;9266;51.132;17.062;2023-02-28T06:44:17;24.33;;;16.57;;
18280;SDS011;9266;51.132;17.062;2023-02-28T06:46:44;23.43;;;16.00;;
18280;SDS011;9266;51.132;17.062;2023-02-28T06:49:15;28.90;;;17.67;;
18280;SDS011;9266;51.132;17.062;2023-02-28T06:51:43;27.53;;;16.70;;
18280;SDS011;9266;51.132;17.062;2023-02-28T06:54:11;26.03;;;15.43;;
18280;SDS011;9266;51.132;17.062;2023-02-28T06:56:39;15.83;;;12.57;;
18280;SDS011;9266;51.132;17.062;2023-02-28T06:59:08;17.47;;;12.00;;
18280;SDS011;9266;51.132;17.062;2023-02-28T07:01:35;22.27;;;14.00;;
18280;SDS011;9266;51.132;17.062;2023-02-28T07:04:02;18.97;;;14.90;;
18280;SDS011;9266;51.132;17.062;2023-02-28T07:06:32;17.23;;;12.77;;
18280;SDS011;9266;51.132;17.062;2023-02-28T07:08:59;21.27;;;12.13;;
18280;SDS011;9266;51.132;17.062;2023-02-28T07:11:27;19.07;;;11.63;;
18280;SDS011;9266;51.132;17.062;2023-02-28T07:13:54;20.00;;;13.07;;
18280;SDS011;9266;51.132;17.062;2023-02-28T07:16:24;21.97;;;13.53;;
18280;SDS011;9266;51.132;17.062;2023-02-28T07:18:52;19.13;;;13.23;;
18280;SDS011;9266;51.132;17.062;2023-02-28T07:21:19;18.60;;;12.60;;
18280;SDS011;9266;51.132;17.062;2023-02-28T07:23:47;24.57;;;13.50;;
18280;SDS011;9266;51.132;17.062;2023-02-28T07:26:15;19.07;;;13.80;;
18280;SDS011;9266;51.132;17.062;2023-02-28T07:28:43;18.37;;;13.37;;
18280;SDS011;9266;51.132;17.062;2023-02-28T07:31:11;19.40;;;12.20;;
18280;SDS011;9266;51.132;17.062;2023-02-28T07:33:41;18.20;;;13.10;;
18280;SDS011;9266;51.132;17.062;2023-02-28T07:36:09;16.57;;;12.30;;
18280;SDS011;9266;51.132;17.062;2023-02-28T07:38:40;14.33;;;11.60;;
18280;SDS011;9266;51.132;17.062;2023-02-28T07:41:09;13.30;;;10.60;;
18280;SDS011;9266;51.132;17.062;2023-02-28T07:43:36;17.77;;;11.03;;
18280;SDS011;9266;51.132;17.062;2023-02-28T07:46:04;11.17;;;9.67;;
18280;SDS011;9266;51.132;17.062;2023-02-28T07:48:32;12.03;;;8.33;;
18280;SDS011;9266;51.132;17.062;2023-02-28T07:51:02;12.23;;;9.27;;
18280;SDS011;9266;51.132;17.062;2023-02-28T07:53:29;16.77;;;10.73;;
18280;SDS011;9266;51.132;17.062;2023-02-28T07:55:57;13.13;;;10.40;;
18280;SDS011;9266;51.132;17.062;2023-02-28T07:58:26;14.93;;;10.13;;
18280;SDS011;9266;51.132;17.062;2023-02-28T08:00:53;14.37;;;9.70;;
18280;SDS011;9266;51.132;17.062;2023-02-28T08:03:21;12.50;;;9.57;;
18280;SDS011;9266;51.132;17.062;2023-02-28T08:05:49;9.03;;;8.13;;
18280;SDS011;9266;51.132;17.062;2023-02-28T08:08:19;13.50;;;9.33;;
18280;SDS011;9266;51.132;17.062;2023-02-28T08:10:46;11.80;;;9.47;;
18280;SDS011;9266;51.132;17.062;2023-02-28T08:13:13;13.00;;;9.50;;
18280;SDS011;9266;51.132;17.062;2023-02-28T08:15:40;9.17;;;7.57;;
18280;SDS011;9266;51.132;17.062;2023-02-28T08:18:08;13.83;;;8.80;;
18280;SDS011;9266;51.132;17.062;2023-02-28T08:20:36;11.67;;;9.17;;
18280;SDS011;9266;51.132;17.062;2023-02-28T08:23:03;11.87;;;8.87;;
18280;SDS011;9266;51.132;17.062;2023-02-28T08:25:31;12.70;;;9.37;;
18280;SDS011;9266;51.132;17.062;2023-02-28T08:27:58;13.67;;;9.97;;
18280;SDS011;9266;51.132;17.062;2023-02-28T08:30:25;16.63;;;11.33;;
18280;SDS011;9266;51.132;17.062;2023-02-28T08:32:52;13.53;;;9.60;;
18280;SDS011;9266;51.132;17.062;2023-02-28T08:35:19;12.53;;;9.67;;
18280;SDS011;9266;51.132;17.062;2023-02-28T08:37:47;12.03;;;9.50;;
18280;SDS011;9266;51.132;17.062;2023-02-28T08:40:14;11.77;;;8.83;;
18280;SDS011;9266;51.132;17.062;2023-02-28T08:42:44;12.67;;;9.60;;
18280;SDS011;9266;51.132;17.062;2023-02-28T08:45:12;17.40;;;10.40;;
18280;SDS011;9266;51.132;17.062;2023-02-28T08:47:40;14.90;;;9.90;;
18280;SDS011;9266;51.132;17.062;2023-02-28T08:50:08;13.77;;;9.93;;
18280;SDS011;9266;51.132;17.062;2023-02-28T08:52:36;11.93;;;9.73;;
18280;SDS011;9266;51.132;17.062;2023-02-28T08:55:03;10.83;;;7.83;;
18280;SDS011;9266;51.132;17.062;2023-02-28T08:57:31;9.07;;;7.17;;
18280;SDS011;9266;51.132;17.062;2023-02-28T09:00:00;11.93;;;8.47;;
18280;SDS011;9266;51.132;17.062;2023-02-28T09:02:29;14.50;;;11.17;;
18280;SDS011;9266;51.132;17.062;2023-02-28T09:04:56;12.60;;;9.90;;
18280;SDS011;9266;51.132;17.062;2023-02-28T09:07:23;12.10;;;9.23;;
18280;SDS011;9266;51.132;17.062;2023-02-28T09:09:50;12.97;;;8.70;;
18280;SDS011;9266;51.132;17.062;2023-02-28T09:12:20;13.80;;;9.77;;
18280;SDS011;9266;51.132;17.062;2023-02-28T09:14:48;10.60;;;8.10;;
18280;SDS011;9266;51.132;17.062;2023-02-28T09:17:16;11.00;;;8.07;;
18280;SDS011;9266;51.132;17.062;2023-02-28T09:19:44;11.83;;;8.07;;
18280;SDS011;9266;51.132;17.062;2023-02-28T09:22:13;8.80;;;7.37;;
18280;SDS011;9266;51.132;17.062;2023-02-28T09:24:41;10.00;;;7.83;;
18280;SDS011;9266;51.132;17.062;2023-02-28T09:27:10;10.80;;;7.57;;
18280;SDS011;9266;51.132;17.062;2023-02-28T09:29:38;11.90;;;8.13;;
18280;SDS011;9266;51.132;17.062;2023-02-28T09:32:05;11.33;;;9.33;;
18280;SDS011;9266;51.132;17.062;2023-02-28T09:34:34;10.20;;;8.37;;
18280;SDS011;9266;51.132;17.062;2023-02-28T09:37:02;13.50;;;8.90;;
18280;SDS011;9266;51.132;17.062;2023-02-28T09:39:29;10.07;;;8.27;;
18280;SDS011;9266;51.132;17.062;2023-02-28T09:41:57;11.93;;;8.37;;
18280;SDS011;9266;51.132;17.062;2023-02-28T09:44:27;11.93;;;8.23;;
18280;SDS011;9266;51.132;17.062;2023-02-28T09:46:59;9.10;;;7.97;;
18280;SDS011;9266;51.132;17.062;2023-02-28T09:49:33;11.37;;;8.20;;
18280;SDS011;9266;51.132;17.062;2023-02-28T09:52:09;8.40;;;6.93;;
18280;SDS011;9266;51.132;17.062;2023-02-28T09:54:38;8.43;;;7.37;;
18280;SDS011;9266;51.132;17.062;2023-02-28T09:57:06;10.67;;;7.10;;
18280;SDS011;9266;51.132;17.062;2023-02-28T09:59:40;9.17;;;7.20;;
18280;SDS011;9266;51.132;17.062;2023-02-28T10:02:23;9.43;;;7.93;;
18280;SDS011;9266;51.132;17.062;2023-02-28T10:05:13;9.03;;;7.70;;
18280;SDS011;9266;51.132;17.062;2023-02-28T10:07:49;9.93;;;7.43;;
18280;SDS011;9266;51.132;17.062;2023-02-28T10:10:24;10.87;;;7.57;;
18280;SDS011;9266;51.132;17.062;2023-02-28T10:12:59;9.87;;;7.53;;
18280;SDS011;9266;51.132;17.062;2023-02-28T10:15:29;8.67;;;7.77;;
18280;SDS011;9266;51.132;17.062;2023-02-28T10:17:59;10.47;;;8.70;;
18280;SDS011;9266;51.132;17.062;2023-02-28T10:20:31;13.17;;;9.27;;
18280;SDS011;9266;51.132;17.062;2023-02-28T10:23:02;12.27;;;8.67;;
18280;SDS011;9266;51.132;17.062;2023-02-28T10:25:36;15.30;;;10.87;;
18280;SDS011;9266;51.132;17.062;2023-02-28T10:28:09;15.30;;;12.57;;
18280;SDS011;9266;51.132;17.062;2023-02-28T10:30:39;14.87;;;13.27;;
18280;SDS011;9266;51.132;17.062;2023-02-28T10:33:14;12.00;;;8.33;;
18280;SDS011;9266;51.132;17.062;2023-02-28T10:35:47;11.30;;;9.03;;
18280;SDS011;9266;51.132;17.062;2023-02-28T10:38:15;12.93;;;8.87;;
18280;SDS011;9266;51.132;17.062;2023-02-28T10:40:44;13.13;;;9.03;;
18280;SDS011;9266;51.132;17.062;2023-02-28T10:43:18;13.97;;;10.77;;
18280;SDS011;9266;51.132;17.062;2023-02-28T10:45:54;14.47;;;9.57;;
18280;SDS011;9266;51.132;17.062;2023-02-28T10:48:26;11.80;;;8.53;;
18280;SDS011;9266;51.132;17.062;2023-02-28T10:50:58;12.37;;;9.93;;
18280;SDS011;9266;51.132;17.062;2023-02-28T10:53:34;12.93;;;8.77;;
18280;SDS011;9266;51.132;17.062;2023-02-28T10:56:05;13.03;;;9.13;;
18280;SDS011;9266;51.132;17.062;2023-02-28T10:58:46;12.07;;;8.03;;
18280;SDS011;9266;51.132;17.062;2023-02-28T11:01:17;14.13;;;9.40;;
18280;SDS011;9266;51.132;17.062;2023-02-28T11:03:46;12.67;;;8.93;;
18280;SDS011;9266;51.132;17.062;2023-02-28T11:06:16;12.23;;;9.07;;
18280;SDS011;9266;51.132;17.062;2023-02-28T11:08:46;12.90;;;9.53;;
18280;SDS011;9266;51.132;17.062;2023-02-28T11:11:16;15.07;;;8.97;;
18280;SDS011;9266;51.132;17.062;2023-02-28T11:13:45;13.23;;;9.10;;
18280;SDS011;9266;51.132;17.062;2023-02-28T11:16:15;12.97;;;8.63;;
18280;SDS011;9266;51.132;17.062;2023-02-28T11:18:43;13.37;;;8.23;;
18280;SDS011;9266;51.132;17.062;2023-02-28T11:21:20;11.53;;;9.13;;
18280;SDS011;9266;51.132;17.062;2023-02-28T11:23:50;12.93;;;8.87;;
18280;SDS011;9266;51.132;17.062;2023-02-28T11:26:38;11.50;;;8.60;;
18280;SDS011;9266;51.132;17.062;2023-02-28T11:29:18;13.73;;;8.83;;
18280;SDS011;9266;51.132;17.062;2023-02-28T11:34:31;12.50;;;8.40;;
18280;SDS011;9266;51.132;17.062;2023-02-28T11:36:59;12.03;;;8.67;;
18280;SDS011;9266;51.132;17.062;2023-02-28T11:39:30;12.20;;;9.30;;
18280;SDS011;9266;51.132;17.062;2023-02-28T11:42:10;12.50;;;8.83;;
18280;SDS011;9266;51.132;17.062;2023-02-28T11:45:02;12.07;;;8.17;;
18280;SDS011;9266;51.132;17.062;2023-02-28T11:47:47;11.37;;;8.33;;
18280;SDS011;9266;51.132;17.062;2023-02-28T11:50:24;14.97;;;9.43;;
18280;SDS011;9266;51.132;17.062;2023-02-28T11:53:13;11.53;;;7.90;;
18280;SDS011;9266;51.132;17.062;2023-02-28T11:55:47;10.50;;;8.33;;
18280;SDS011;9266;51.132;17.062;2023-02-28T11:58:21;12.87;;;8.70;;
18280;SDS011;9266;51.132;17.062;2023-02-28T12:01:04;12.43;;;9.33;;
18280;SDS011;9266;51.132;17.062;2023-02-28T12:03:45;13.73;;;9.70;;
18280;SDS011;9266;51.132;17.062;2023-02-28T12:06:25;14.60;;;10.07;;
18280;SDS011;9266;51.132;17.062;2023-02-28T12:09:08;14.43;;;10.27;;
18280;SDS011;9266;51.132;17.062;2023-02-28T12:11:47;12.90;;;9.47;;
18280;SDS011;9266;51.132;17.062;2023-02-28T12:14:22;17.80;;;9.70;;
18280;SDS011;9266;51.132;17.062;2023-02-28T12:17:04;13.87;;;9.60;;
18280;SDS011;9266;51.132;17.062;2023-02-28T12:19:42;15.30;;;11.73;;
18280;SDS011;9266;51.132;17.062;2023-02-28T12:22:22;14.20;;;9.93;;
18280;SDS011;9266;51.132;17.062;2023-02-28T12:25:00;17.67;;;10.60;;
18280;SDS011;9266;51.132;17.062;2023-02-28T12:27:44;15.00;;;10.27;;
18280;SDS011;9266;51.132;17.062;2023-02-28T12:30:15;14.43;;;10.97;;
18280;SDS011;9266;51.132;17.062;2023-02-28T12:32:45;16.13;;;10.30;;
18280;SDS011;9266;51.132;17.062;2023-02-28T12:35:16;14.67;;;10.27;;
18280;SDS011;9266;51.132;17.062;2023-02-28T12:37:50;13.37;;;10.37;;
18280;SDS011;9266;51.132;17.062;2023-02-28T12:40:24;17.40;;;10.77;;
18280;SDS011;9266;51.132;17.062;2023-02-28T12:42:56;13.80;;;10.27;;
18280;SDS011;9266;51.132;17.062;2023-02-28T12:45:39;14.87;;;10.37;;
18280;SDS011;9266;51.132;17.062;2023-02-28T12:48:09;13.83;;;10.60;;
18280;SDS011;9266;51.132;17.062;2023-02-28T12:50:40;15.10;;;10.33;;
18280;SDS011;9266;51.132;17.062;2023-02-28T12:53:09;15.20;;;9.83;;
18280;SDS011;9266;51.132;17.062;2023-02-28T12:55:50;15.10;;;10.43;;
18280;SDS011;9266;51.132;17.062;2023-02-28T12:58:26;16.40;;;10.90;;
18280;SDS011;9266;51.132;17.062;2023-02-28T13:01:24;16.23;;;10.17;;
18280;SDS011;9266;51.132;17.062;2023-02-28T13:04:27;14.17;;;10.00;;
18280;SDS011;9266;51.132;17.062;2023-02-28T13:10:09;41.33;;;23.33;;
18280;SDS011;9266;51.132;17.062;2023-02-28T13:12:38;16.23;;;12.60;;
18280;SDS011;9266;51.132;17.062;2023-02-28T13:15:16;17.33;;;10.97;;
18280;SDS011;9266;51.132;17.062;2023-02-28T13:17:48;13.80;;;10.63;;
18280;SDS011;9266;51.132;17.062;2023-02-28T13:20:18;13.07;;;10.00;;
18280;SDS011;9266;51.132;17.062;2023-02-28T13:22:47;14.77;;;10.00;;
18280;SDS011;9266;51.132;17.062;2023-02-28T13:31:34;15.80;;;11.30;;
18280;SDS011;9266;51.132;17.062;2023-02-28T13:34:40;15.40;;;10.37;;
18280;SDS011;9266;51.132;17.062;2023-02-28T13:40:13;13.70;;;9.57;;
18280;SDS011;9266;51.132;17.062;2023-02-28T13:42:55;12.77;;;9.27;;
18280;SDS011;9266;51.132;17.062;2023-02-28T13:45:23;15.93;;;10.60;;
18280;SDS011;9266;51.132;17.062;2023-02-28T13:47:55;14.00;;;10.83;;
18280;SDS011;9266;51.132;17.062;2023-02-28T13:50:29;14.13;;;10.13;;
18280;SDS011;9266;51.132;17.062;2023-02-28T13:56:07;19.23;;;13.70;;
18280;SDS011;9266;51.132;17.062;2023-02-28T13:58:49;16.27;;;11.03;;
18280;SDS011;9266;51.132;17.062;2023-02-28T14:01:28;14.67;;;10.47;;
18280;SDS011;9266;51.132;17.062;2023-02-28T14:07:07;15.23;;;11.03;;
18280;SDS011;9266;51.132;17.062;2023-02-28T14:09:37;16.27;;;10.73;;
18280;SDS011;9266;51.132;17.062;2023-02-28T14:18:21;12.90;;;10.47;;
18280;SDS011;9266;51.132;17.062;2023-02-28T14:20:53;14.53;;;10.70;;
18280;SDS011;9266;51.132;17.062;2023-02-28T14:23:30;14.10;;;10.53;;
18280;SDS011;9266;51.132;17.062;2023-02-28T14:26:12;18.57;;;13.57;;
18280;SDS011;9266;51.132;17.062;2023-02-28T14:28:51;19.20;;;12.37;;
18280;SDS011;9266;51.132;17.062;2023-02-28T14:31:35;16.00;;;11.07;;
18280;SDS011;9266;51.132;17.062;2023-02-28T14:34:14;16.43;;;12.07;;
18280;SDS011;9266;51.132;17.062;2023-02-28T14:36:53;17.70;;;11.90;;
18280;SDS011;9266;51.132;17.062;2023-02-28T14:39:25;16.53;;;11.73;;
18280;SDS011;9266;51.132;17.062;2023-02-28T14:41:56;17.57;;;11.80;;
18280;SDS011;9266;51.132;17.062;2023-02-28T14:44:28;16.67;;;11.00;;
18280;SDS011;9266;51.132;17.062;2023-02-28T14:46:56;16.00;;;11.27;;
18280;SDS011;9266;51.132;17.062;2023-02-28T14:49:29;16.73;;;11.20;;
18280;SDS011;9266;51.132;17.062;2023-02-28T14:52:05;15.60;;;10.60;;
18280;SDS011;9266;51.132;17.062;2023-02-28T14:54:35;17.93;;;11.50;;
18280;SDS011;9266;51.132;17.062;2023-02-28T14:57:02;14.47;;;11.70;;
18280;SDS011;9266;51.132;17.062;2023-02-28T14:59:31;14.33;;;10.40;;
18280;SDS011;9266;51.132;17.062;2023-02-28T15:02:18;14.53;;;10.83;;
18280;SDS011;9266;51.132;17.062;2023-02-28T15:04:54;14.70;;;10.83;;
18280;SDS011;9266;51.132;17.062;2023-02-28T15:07:23;16.27;;;11.07;;
18280;SDS011;9266;51.132;17.062;2023-02-28T15:10:11;16.37;;;11.00;;
18280;SDS011;9266;51.132;17.062;2023-02-28T15:12:44;15.20;;;10.80;;
18280;SDS011;9266;51.132;17.062;2023-02-28T15:15:17;16.23;;;10.87;;
18280;SDS011;9266;51.132;17.062;2023-02-28T15:17:48;15.37;;;10.53;;
18280;SDS011;9266;51.132;17.062;2023-02-28T15:20:17;16.30;;;11.20;;
18280;SDS011;9266;51.132;17.062;2023-02-28T15:22:47;15.47;;;10.23;;